Weather

Rainfall Maps have ended for the season and will begin again on June 1st.

*Note: Some stations are located near irrigated fields and may also report irrigation

Forrest Carberry Carberry North Wawanesa Glenboro Glenora Treherne Gladstone Portage East High Bluff Elm Creek Carman Winkler Kuhl Farm Morris St.Adolphe Steinbach Selkirk Macdonald Shilo Rivers Somerset Reinland Altona Starbuck St.Pierre Winkler




Morris - Historical Weather Data
Date Max Temp (°C) Min Temp (°C) Avg Temp (°C) Rain (mm) Avg RH (%) Solar Radiation (W/m2)
4/25/2018 19.6 -0.9 10.9 0.0 43.0 19.9
4/24/2018 12.0 -4.8 4.4 0.0 55.0 24.0
4/23/2018 16.9 0.9 9.7 0.0 54.0 21.3
4/22/2018 17.3 2.1 10.7 0.0 61.0 15.2
4/21/2018 18.2 -1.6 8.0 0.0 70.0 17.9
4/20/2018 15.4 -2.3 6.9 0.0 64.0 18.1
4/19/2018 14.3 -3.5 6.6 0.0 56.0 20.8
4/18/2018 13.3 -3.0 5.2 0.0 42.0 19.9
4/17/2018 12.5 -6.4 3.4 0.0 41.0 20.9
4/16/2018 9.0 -7.3 0.9 0.0 46.0 22.3
4/15/2018 5.3 -7.6 -1.1 0.0 48.0 21.7
4/14/2018 4.0 -8.8 -2.3 0.0 50.0 18.6
4/13/2018 0.6 -9.4 -4.4 0.0 52.0 21.9
4/12/2018 2.0 -5.1 -2.0 2.2 75.0 20.4
4/11/2018 4.5 -5.7 -0.5 0.6 66.0 17.3
4/10/2018 4.0 -4.6 -0.4 0.0 71.0 9.8
4/9/2018 2.4 -12.7 -4.3 0.0 63.0 20.1
4/8/2018 0.0 -14.0 -6.5 0.0 49.0 19.4
4/7/2018 -3.8 -14.6 -8.8 0.0 60.0 21.1
4/6/2018 -4.9 -17.1 -11.2 0.0 66.0 18.6
4/5/2018 -2.2 -11.7 -6.5 0.1 62.0 17.7
4/4/2018 -0.6 -10.4 -5.5 0.0 67.0 17.1
4/3/2018 -4.6 -17.5 -11.1 0.0 56.0 17.5
4/2/2018 -8.5 -17.1 -12.8 0.0 55.0 20.1
4/1/2018 -0.9 -11.3 -6.8 0.0 62.0 19.6
3/31/2018 -7.3 -14.2 -10.6 0.0 62.0 19.4
3/30/2018 -8.2 -16.9 -12.2 0.0 57.0 18.7
3/29/2018 -5.3 -13.9 -8.5 0.0 71.0 16.0
3/28/2018 3.4 -7.1 -4.1 1.4 80.0 15.3
3/27/2018 6.8 -2.3 1.6 0.0 83.0 17.2
3/26/2018 1.6 -2.6 -0.2 0.0 94.0 5.9
3/25/2018 0.7 -1.2 -0.1 0.1 83.0 5.0
3/24/2018 1.0 -3.4 -1.5 0.0 81.0 7.9
3/23/2018 3.0 -5.0 -0.2 0.0 74.0 12.4
3/22/2018 3.8 -1.1 0.6 0.0 89.0 15.0
3/21/2018 0.4 -7.5 -2.1 0.0 93.0 9.3
3/20/2018 -0.8 -7.0 -4.1 0.2 89.0 11.2
3/19/2018 0.1 -5.7 -2.2 0.0 75.0 12.0
3/18/2018 2.3 -1.2 0.0 0.0 83.0 11.0
3/17/2018 -0.3 -17.3 -8.3 0.0 81.0 17.1
3/16/2018 -2.6 -17.1 -9.2 0.0 73.0 16.7
3/15/2018 -4.4 -15.1 -9.7 0.0 72.0 16.7
3/14/2018 -1.6 -9.6 -5.7 0.0 79.0 16.5
3/13/2018 -1.6 -19.3 -9.1 0.0 81.0 15.3
3/12/2018 -3.8 -13.3 -6.7 0.0 73.0 15.9
3/11/2018 -0.6 -10.6 -4.9 0.0 79.0 15.5
3/10/2018 -2.7 -12.4 -5.7 0.2 83.0 7.1
3/9/2018 -5.9 -19.6 -13.1 0.0 88.0 14.2
3/8/2018 -6.4 -20.9 -13.0 0.0 86.0 12.3
3/7/2018 -8.4 -20.0 -13.5 0.0 81.0 15.0
3/6/2018 -1.5 -17.8 -9.0 0.0 71.0 14.5
3/5/2018 1.1 -1.8 -0.7 3.0 85.0 5.8
3/4/2018 4.0 -0.3 1.9 3.7 76.0 5.3
3/3/2018 5.0 -9.1 -1.2 0.0 70.0 10.8
3/2/2018 -1.6 -14.1 -6.7 0.0 84.0 9.4
3/1/2018 2.8 -12.6 -4.9 0.0 83.0 13.3
2/28/2018 0.4 -14.5 -8.4 0.0 85.0 12.7
2/27/2018 -3.1 -14.0 -8.3 0.0 78.0 13.0
2/26/2018 -1.3 -16.3 -8.8 0.0 82.0 11.4
2/25/2018 -2.9 -14.5 -8.2 0.7 83.0 11.5
2/24/2018 -7.6 -18.5 -12.4 0.2 81.0 11.0
2/23/2018 -8.1 -17.2 -13.1 0.0 76.0 11.7
2/22/2018 -9.7 -22.0 -16.2 0.0 79.0 12.0
2/21/2018 -12.0 -21.1 -16.3 0.0 70.0 11.1
2/20/2018 -12.5 -17.1 -15.5 0.7 74.0 9.3
2/19/2018 -15.6 -23.7 -18.7 0.0 65.0 9.6
2/18/2018 -10.9 -18.6 -14.9 0.0 71.0 7.0
2/17/2018 -7.7 -16.8 -12.6 0.0 71.0 10.2
2/16/2018 -7.4 -19.1 -13.0 0.0 70.0 8.6
2/15/2018 -6.6 -22.9 -18.6 0.0 70.0 9.5
2/14/2018 1.9 -11.7 -4.7 0.1 80.0 7.4
2/13/2018 -4.1 -19.5 -10.3 0.0 71.0 8.5
2/12/2018 -16.6 -28.2 -22.4 0.0 65.0 10.2
2/11/2018 -14.2 -25.3 -18.2 0.0 74.0 7.1
2/10/2018 -12.7 -21.8 -16.8 0.0 70.0 8.3
2/9/2018 -12.8 -26.9 -19.7 0.0 69.0 9.6
2/8/2018 -15.2 -24.7 -20.7 0.0 74.0 9.3
2/7/2018 -14.7 -24.8 -20.4 0.0 74.0 9.3
2/6/2018 -14.8 -24.8 -19.5 0.0 73.0 6.0
2/5/2018 -15.1 -24.8 -19.0 0.0 70.0 7.9
2/4/2018 -14.8 -27.6 -20.7 0.0 65.0 7.1
2/3/2018 -20.9 -29.2 -23.4 0.4 76.0 6.3
2/2/2018 -16.6 -24.4 -20.1 0.5 76.0 4.5
2/1/2018 -19.8 -25.5 -22.4 0.0 74.0 7.5
1/31/2018 -12.3 -20.7 -17.9 0.0 68.0 6.5
1/30/2018 -1.4 -23.2 -12.1 1.7 81.0 3.0
1/29/2018 -18.0 -23.9 -20.3 0.0 76.0 7.3
1/28/2018 -20.1 -23.6 -21.2 0.0 76.0 6.9
1/27/2018 -7.5 -20.7 -14.3 0.2 80.0 4.6
1/26/2018 -2.5 -7.6 -4.0 0.0 89.0 1.4
1/25/2018 -3.7 -10.5 -5.9 0.0 90.0 2.5
1/24/2018 -4.2 -10.5 -7.6 0.0 87.0 1.6
1/23/2018 -5.3 -7.7 -6.6 0.0 87.0 1.3
1/22/2018 -4.3 -7.6 -6.0 0.0 82.0 2.1
1/21/2018 -6.7 -8.8 -7.4 0.0 87.0 1.4
1/20/2018 0.5 -11.1 -4.4 0.0 89.0 6.1
1/19/2018 3.8 -5.6 0.7 0.0 82.0 3.8
1/18/2018 2.3 -7.1 -5.2 0.0 78.0 3.3
1/17/2018 2.7 -15.1 -6.2 0.0 70.0 6.4
1/16/2018 -12.6 -28.1 -19.3 0.0 66.0 5.3
1/15/2018 -23.0 -27.3 -25.4 0.0 74.0 5.0
1/14/2018 -14.0 -23.0 -18.1 0.6 78.0 3.3
1/13/2018 -20.4 -31.1 -25.3 0.0 73.0 6.3
1/12/2018 -20.3 -30.1 -25.7 0.0 70.0 6.2
1/11/2018 -19.7 -28.5 -23.7 0.8 74.0 5.4
1/10/2018 -1.7 -19.9 -10.9 0.7 84.0 1.7
1/9/2018 -0.6 -14.6 -5.7 0.0 83.0 2.9
1/8/2018 -4.3 -14.0 -9.5 0.0 77.0 5.6
1/7/2018 -0.2 -9.3 -4.8 0.0 83.0 2.6
1/6/2018 -8.8 -24.6 -16.0 0.0 79.0 1.9
1/5/2018 -21.1 -30.5 -25.8 0.0 75.0 4.9
1/4/2018 -20.9 -27.7 -24.5 0.0 74.0 5.1
1/3/2018 -21.3 -24.6 -22.6 0.0 72.0 4.9
1/2/2018 -13.0 -24.0 -17.9 0.0 72.0 4.2
1/1/2018 -19.2 -27.8 -23.6 0.0 68.0 5.5
12/31/2017 -24.9 -34.7 -29.0 0.0 70.0 5.4
12/30/2017 -28.9 -34.5 -31.5 0.0 70.0 5.4
12/29/2017 -25.4 -30.7 -27.9 0.0 73.0 4.9
12/28/2017 -18.2 -29.5 -21.9 0.0 77.0 3.9
12/27/2017 -21.7 -31.5 -26.4 0.0 70.0 5.3
12/26/2017 -25.4 -30.9 -27.8 0.0 68.0 5.2
12/25/2017 -26.3 -31.6 -28.8 0.0 68.0 4.9
12/24/2017 -21.1 -28.0 -24.4 0.0 72.0 5.0
12/23/2017 -7.6 -25.9 -15.1 0.8 77.0 2.7
12/22/2017 -9.1 -16.7 -11.8 0.1 81.0 2.7
12/21/2017 -16.4 -25.1 -19.8 0.0 80.0 5.2
12/20/2017 -15.4 -21.1 -17.6 0.0 80.0 3.4
12/19/2017 -3.4 -17.6 -9.8 0.2 73.0 2.6
12/18/2017 1.6 -5.7 -1.0 0.0 80.0 2.5
12/17/2017 -2.3 -13.3 -9.1 0.0 86.0 5.2
12/16/2017 -7.5 -12.3 -10.3 0.2 88.0 2.5
12/15/2017 -8.6 -15.3 -10.7 0.5 84.0 2.2
12/14/2017 -7.3 -11.2 -8.9 0.0 86.0 2.4
12/13/2017 -4.6 -13.1 -7.4 0.0 87.0 1.7
12/12/2017 -3.5 -13.6 -7.4 0.0 90.0 2.9
12/11/2017 0.2 -16.9 -9.6 0.0 84.0 4.7
12/10/2017 -3.3 -8.4 -6.3 1.2 87.0 2.6
12/9/2017 -2.4 -11.3 -7.0 0.0 78.0 2.5
12/8/2017 1.1 -9.3 -5.8 0.0 80.0 3.8
12/7/2017 -3.3 -15.6 -8.2 0.0 80.0 2.3
12/6/2017 -12.2 -15.7 -13.9 0.0 75.0 4.0
12/5/2017 -10.0 -15.1 -12.7 0.0 75.0 3.4
12/4/2017 -0.6 -12.7 -4.8 1.1 88.0 1.4
12/3/2017 0.3 -6.2 -2.3 0.0 86.0 3.1
12/2/2017 2.9 -8.7 -2.1 0.0 87.0 4.9
12/1/2017 0.7 -5.5 -1.7 0.0 87.0 3.9
11/30/2017 2.1 -2.9 0.0 0.0 83.0 3.8
11/29/2017 4.7 -8.5 -0.8 1.2 75.0 2.6
11/28/2017 3.1 -11.3 -3.8 0.3 68.0 4.8
11/27/2017 4.6 -5.1 1.6 0.6 81.0 3.3
11/26/2017 -1.3 -7.7 -5.2 0.0 83.0 2.3
11/25/2017 -1.8 -12.1 -7.7 0.0 79.0 4.7
11/24/2017 5.6 -8.0 1.3 0.0 81.0 5.6
11/23/2017 5.4 -10.4 -3.3 0.0 86.0 3.3
11/22/2017 -6.4 -13.7 -9.8 0.3 85.0 2.4
11/21/2017 -6.3 -12.7 -10.0 0.0 76.0 5.9
11/20/2017 4.2 -9.3 -3.2 0.3 81.0 1.7
11/19/2017 -4.4 -12.8 -8.8 0.0 81.0 5.7
11/18/2017 -8.3 -12.7 -10.2 0.0 74.0 5.3
11/17/2017 -0.2 -12.5 -5.8 0.4 80.0 5.8
11/16/2017 -1.1 -6.7 -4.6 0.0 83.0 1.7
11/15/2017 -2.8 -8.0 -6.0 0.0 85.0 3.1
11/14/2017 1.5 -4.6 -1.6 0.0 93.0 4.6
11/13/2017 1.0 -9.4 -4.7 0.0 87.0 6.7
11/12/2017 -3.3 -10.6 -5.9 0.0 83.0 4.0
11/11/2017 -3.1 -9.3 -5.8 0.0 84.0 5.4
11/10/2017 -7.5 -24.4 -13.1 0.0 78.0 3.4
11/9/2017 -13.0 -24.3 -19.0 0.0 77.0 8.3
11/8/2017 -8.9 -16.7 -10.9 0.0 83.0 4.5
11/7/2017 -5.7 -17.1 -11.3 0.0 78.0 8.3
11/6/2017 -7.8 -16.3 -11.7 0.0 78.0 8.0
11/5/2017 -3.5 -11.5 -6.7 0.0 80.0 6.4
11/4/2017 -0.2 -6.4 -2.9 2.4 94.0 2.3
11/3/2017 -2.7 -8.5 -5.0 0.0 82.0 5.7
11/2/2017 -1.1 -5.2 -2.3 0.0 85.0 4.7
11/1/2017 0.0 -4.5 -2.1 0.7 88.0 3.3
10/31/2017 -1.4 -8.2 -4.8 0.0 79.0 6.1